Time;durP1;ratioP1;P1;durP2;ratioP2;P2;SDS_P1;SDS_P2;PMS_P1;PMS_P2;Temp;Humidity;BMP_temperature;BMP_pressure;BME280_temperature;BME280_humidity;BME280_pressure;Samples;Min_cycle;Max_cycle;Signal;HPM_P1;HPM_P2
2023/09/05 00:01:51;;;;;;;3.45;2.75;;;16.60;99.90;;;;;;5026734;28;20336;-65
2023/09/05 00:04:18;;;;;;;5.45;3.00;;;16.60;99.90;;;;;;5031271;28;20414;-65
2023/09/05 00:06:50;;;;;;;3.42;2.70;;;16.50;99.90;;;;;;5018966;28;20125;-64
2023/09/05 00:09:22;;;;;;;5.97;3.45;;;16.50;99.90;;;;;;5026340;28;20042;-64
2023/09/05 00:11:54;;;;;;;5.25;2.67;;;16.40;99.90;;;;;;5039299;28;20392;-64
2023/09/05 00:14:26;;;;;;;5.63;3.38;;;16.30;99.90;;;;;;5026222;28;20052;-65
2023/09/05 00:16:52;;;;;;;4.05;2.75;;;16.30;99.90;;;;;;5025941;28;20132;-65
2023/09/05 00:19:24;;;;;;;4.53;3.30;;;16.20;99.90;;;;;;5024465;28;20149;-65
2023/09/05 00:26:22;;;;;;;3.38;2.70;;;16.00;99.90;;;;;;4991417;28;20426;-65
2023/09/05 00:28:54;;;;;;;3.13;2.67;;;15.90;99.90;;;;;;4989114;28;20082;-65
2023/09/05 00:31:26;;;;;;;4.90;2.78;;;15.80;99.90;;;;;;4980464;28;20061;-65
2023/09/05 00:33:53;;;;;;;4.05;2.72;;;15.70;99.90;;;;;;4990757;28;20077;-65
2023/09/05 00:36:26;;;;;;;3.63;2.63;;;15.70;99.90;;;;;;4993299;28;20046;-72
2023/09/05 00:39:02;;;;;;;5.33;3.13;;;15.60;99.90;;;;;;4975055;28;20042;-65
2023/09/05 00:41:37;;;;;;;4.75;2.30;;;15.60;99.90;;;;;;4977982;28;20462;-65
2023/09/05 00:44:13;;;;;;;4.45;2.60;;;15.50;99.90;;;;;;4981727;28;20774;-65
2023/09/05 00:46:47;;;;;;;4.30;2.97;;;15.40;99.90;;;;;;4995904;28;20704;-65
2023/09/05 00:49:22;;;;;;;5.10;2.45;;;15.30;99.90;;;;;;4989266;28;20045;-65
2023/09/05 00:51:51;;;;;;;6.00;2.83;;;15.30;99.90;;;;;;4987799;28;20107;-66
2023/09/05 00:54:23;;;;;;;5.50;2.60;;;15.30;99.90;;;;;;4974113;28;20047;-65
2023/09/05 00:56:52;;;;;;;5.25;2.78;;;15.20;99.90;;;;;;4979991;28;20057;-65
2023/09/05 00:59:24;;;;;;;3.67;2.67;;;15.20;99.90;;;;;;4989586;28;20047;-65
2023/09/05 01:01:51;;;;;;;4.60;2.83;;;15.20;99.90;;;;;;4981181;28;20038;-65
2023/09/05 01:04:24;;;;;;;3.80;2.58;;;15.20;99.90;;;;;;4988107;28;20042;-65
2023/09/05 01:07:19;;;;;;;3.78;2.63;;;15.30;99.90;;;;;;4979540;28;20125;-65
2023/09/05 01:10:09;;;;;;;3.20;2.70;;;15.30;99.90;;;;;;4980601;28;20046;-65
2023/09/05 01:12:40;;;;;;;4.10;2.90;;;15.30;99.90;;;;;;4976665;28;20570;-65
2023/09/05 01:15:12;;;;;;;4.18;2.30;;;15.40;99.90;;;;;;4972702;28;20058;-65
2023/09/05 01:17:45;;;;;;;3.55;2.83;;;15.40;99.90;;;;;;5004859;28;20054;-65
2023/09/05 01:20:18;;;;;;;3.75;2.97;;;15.50;99.90;;;;;;4987430;28;20057;-65
2023/09/05 01:23:00;;;;;;;4.97;2.63;;;15.50;99.90;;;;;;4995599;28;20140;-66
2023/09/05 01:25:32;;;;;;;4.72;2.70;;;15.50;99.90;;;;;;4988967;28;20286;-65
2023/09/05 01:28:00;;;;;;;3.10;2.80;;;15.50;99.90;;;;;;4992241;28;20070;-65
2023/09/05 01:30:31;;;;;;;3.22;2.85;;;15.50;99.90;;;;;;4988209;28;20043;-65
2023/09/05 01:33:05;;;;;;;3.80;2.90;;;15.50;99.90;;;;;;4987589;28;20043;-65
2023/09/05 01:35:38;;;;;;;3.60;2.72;;;15.50;99.90;;;;;;4975980;28;20050;-65
2023/09/05 01:38:10;;;;;;;3.70;2.75;;;15.50;99.90;;;;;;4998444;28;20044;-65
2023/09/05 01:40:42;;;;;;;7.00;2.72;;;15.50;99.90;;;;;;4986777;28;20561;-65
2023/09/05 01:43:16;;;;;;;4.50;2.87;;;15.50;99.90;;;;;;4988197;28;20042;-65
2023/09/05 01:45:49;;;;;;;3.50;2.90;;;15.50;99.90;;;;;;4989194;28;20396;-65
2023/09/05 01:48:20;;;;;;;5.53;2.97;;;15.40;99.90;;;;;;4975957;28;20046;-65
2023/09/05 01:50:52;;;;;;;3.25;2.70;;;15.40;99.90;;;;;;4979243;28;20054;-65
2023/09/05 01:53:24;;;;;;;4.55;2.88;;;15.40;99.90;;;;;;4979061;28;20145;-66
2023/09/05 01:55:57;;;;;;;4.50;3.15;;;15.40;99.90;;;;;;4972822;28;20050;-65
2023/09/05 01:58:29;;;;;;;3.80;2.65;;;15.40;99.90;;;;;;4988864;28;20431;-65
2023/09/05 02:01:03;;;;;;;4.40;2.95;;;15.30;99.90;;;;;;4999561;28;20051;-65
2023/09/05 02:03:35;;;;;;;;;;;15.30;99.90;;;;;;4970801;28;20054;-65
2023/09/05 02:06:07;;;;;;;4.93;3.03;;;15.30;99.90;;;;;;4971704;28;19933;-65
2023/09/05 02:08:40;;;;;;;3.35;2.22;;;15.30;99.90;;;;;;4972868;28;20126;-65
2023/09/05 02:11:12;;;;;;;4.00;3.10;;;15.30;99.90;;;;;;4985098;28;20069;-65
2023/09/05 02:13:44;;;;;;;4.13;3.10;;;15.30;99.90;;;;;;4997640;28;20088;-65
2023/09/05 02:16:18;;;;;;;3.92;2.85;;;15.30;99.90;;;;;;4965024;28;20043;-65
2023/09/05 02:18:51;;;;;;;4.07;3.10;;;15.30;99.90;;;;;;4976860;28;20050;-65
2023/09/05 02:21:18;;;;;;;3.63;2.95;;;15.20;99.90;;;;;;4970892;28;20070;-65
2023/09/05 02:23:45;;;;;;;6.28;3.38;;;15.20;99.90;;;;;;4970329;28;20078;-65
2023/09/05 02:26:17;;;;;;;3.28;2.70;;;15.20;99.90;;;;;;4989223;28;20201;-65
2023/09/05 02:28:48;;;;;;;5.65;3.17;;;15.20;99.90;;;;;;4973311;28;20062;-65
2023/09/05 02:31:16;;;;;;;3.60;2.83;;;15.20;99.90;;;;;;4988838;28;20050;-65
2023/09/05 02:33:44;;;;;;;3.45;2.60;;;15.20;99.90;;;;;;4986378;28;20042;-66
2023/09/05 02:36:18;;;;;;;4.43;2.92;;;15.20;99.90;;;;;;4980526;28;20515;-65
2023/09/05 02:38:45;;;;;;;3.33;2.63;;;15.20;99.90;;;;;;4987716;28;20039;-65
2023/09/05 02:41:13;;;;;;;4.22;2.97;;;15.20;99.90;;;;;;4986919;28;20037;-65
2023/09/05 02:43:40;;;;;;;4.10;3.03;;;15.10;99.90;;;;;;4983821;28;20154;-65
2023/09/05 02:46:12;;;;;;;4.20;3.00;;;15.10;99.90;;;;;;4986388;28;20158;-65
2023/09/05 02:48:44;;;;;;;4.32;3.00;;;15.10;99.90;;;;;;4970907;28;20077;-65
2023/09/05 02:51:16;;;;;;;3.83;2.92;;;15.10;99.90;;;;;;4988689;28;20049;-65
2023/09/05 02:53:48;;;;;;;3.90;3.20;;;15.00;99.90;;;;;;4987836;28;20049;-65
2023/09/05 02:56:20;;;;;;;3.78;3.08;;;15.00;99.90;;;;;;4999428;28;20046;-65
2023/09/05 02:58:52;;;;;;;4.47;2.97;;;15.00;99.90;;;;;;4982174;28;20136;-65
2023/09/05 03:01:25;;;;;;;3.13;2.45;;;15.00;99.90;;;;;;4978855;28;20811;-65
2023/09/05 03:03:56;;;;;;;4.25;3.10;;;15.00;99.90;;;;;;4987890;28;20507;-65
2023/09/05 03:06:23;;;;;;;3.55;2.63;;;15.00;99.90;;;;;;4985728;28;20043;-65
2023/09/05 03:08:56;;;;;;;3.93;3.00;;;15.00;99.90;;;;;;4971805;28;20047;-65
2023/09/05 03:11:27;;;;;;;10.52;3.47;;;15.00;99.90;;;;;;4970830;28;20050;-65
2023/09/05 03:14:01;;;;;;;3.83;2.90;;;15.00;99.90;;;;;;4970601;28;20132;-65
2023/09/05 03:16:33;;;;;;;5.70;3.88;;;14.90;99.90;;;;;;4988221;28;20403;-65
2023/09/05 03:19:01;;;;;;;4.10;3.10;;;14.90;99.90;;;;;;4985716;28;20500;-65
2023/09/05 03:21:33;;;;;;;;;;;14.90;99.90;;;;;;4984020;28;20057;-65
2023/09/05 03:24:05;;;;;;;4.28;3.20;;;14.80;99.90;;;;;;4980793;28;19925;-65
2023/09/05 03:26:32;;;;;;;4.28;3.03;;;14.70;99.90;;;;;;4974608;28;20520;-65
2023/09/05 03:29:04;;;;;;;5.32;2.70;;;14.70;99.90;;;;;;4976791;28;20055;-65
2023/09/05 03:31:31;;;;;;;5.45;3.10;;;14.70;99.90;;;;;;4991556;28;20122;-65
2023/09/05 03:34:03;;;;;;;3.97;3.15;;;14.60;99.90;;;;;;4989609;28;20687;-65
2023/09/05 03:36:36;;;;;;;4.57;3.22;;;14.60;99.90;;;;;;4990607;28;20062;-65
2023/09/05 03:39:02;;;;;;;7.03;2.83;;;14.50;99.90;;;;;;5004792;28;20656;-65
2023/09/05 03:41:35;;;;;;;4.68;3.13;;;14.40;99.90;;;;;;4980515;28;20043;-65
2023/09/05 03:44:07;;;;;;;5.18;2.88;;;14.30;99.90;;;;;;4997592;28;20415;-65
2023/09/05 03:46:39;;;;;;;5.53;3.28;;;14.30;99.90;;;;;;4981531;28;20051;-65
2023/09/05 03:49:11;;;;;;;5.00;3.40;;;14.20;99.90;;;;;;4988629;28;20039;-65
2023/09/05 03:51:38;;;;;;;4.75;2.97;;;14.20;99.90;;;;;;4980312;28;20138;-65
2023/09/05 03:54:12;;;;;;;7.50;3.70;;;14.10;99.90;;;;;;4977829;28;20535;-65
2023/09/05 03:56:44;;;;;;;6.88;3.35;;;14.10;99.90;;;;;;5004426;28;20054;-65
2023/09/05 03:59:16;;;;;;;3.55;2.92;;;14.10;99.90;;;;;;4991170;28;20495;-65
2023/09/05 04:01:49;;;;;;;5.68;2.70;;;14.10;99.90;;;;;;4991049;28;20056;-65
2023/09/05 04:04:21;;;;;;;4.65;3.30;;;14.10;99.90;;;;;;4990559;28;20043;-65
2023/09/05 04:06:53;;;;;;;5.13;3.70;;;14.10;99.90;;;;;;4988715;28;20046;-65
2023/09/05 04:09:25;;;;;;;3.47;3.03;;;14.00;99.90;;;;;;4984591;28;20049;-65
2023/09/05 04:11:56;;;;;;;3.33;2.70;;;14.00;99.90;;;;;;4986848;28;20054;-65
2023/09/05 04:14:24;;;;;;;6.40;3.28;;;13.90;99.90;;;;;;4991329;28;20060;-65
2023/09/05 04:16:56;;;;;;;4.13;3.03;;;13.80;99.90;;;;;;5003097;28;20051;-65
2023/09/05 04:19:28;;;;;;;3.67;2.90;;;13.80;99.90;;;;;;4984400;28;20046;-65
2023/09/05 04:22:00;;;;;;;5.28;3.58;;;13.80;99.90;;;;;;4989127;28;20134;-65
2023/09/05 04:24:31;;;;;;;4.90;3.15;;;13.80;99.90;;;;;;4990221;28;20042;-65
2023/09/05 04:27:04;;;;;;;3.88;3.47;;;13.70;99.90;;;;;;4988327;28;20145;-65
2023/09/05 04:29:35;;;;;;;4.85;3.15;;;13.70;99.90;;;;;;4989659;28;20126;-65
2023/09/05 04:32:02;;;;;;;3.78;2.90;;;13.70;99.90;;;;;;4990051;28;20509;-65
2023/09/05 04:34:34;;;;;;;4.18;3.28;;;13.70;99.90;;;;;;4986388;28;20050;-65
2023/09/05 04:37:06;;;;;;;5.28;3.47;;;13.70;99.90;;;;;;4975730;28;20065;-65
2023/09/05 04:39:38;;;;;;;4.18;3.22;;;13.70;99.90;;;;;;4985402;28;20046;-65
2023/09/05 04:42:10;;;;;;;5.65;3.70;;;13.70;99.90;;;;;;4987584;28;20042;-65
2023/09/05 04:44:42;;;;;;;4.78;3.33;;;13.70;99.90;;;;;;4985918;28;20055;-65
2023/09/05 04:47:24;;;;;;;6.85;3.42;;;13.70;99.90;;;;;;4988849;28;20129;-65
2023/09/05 04:50:00;;;;;;;6.43;3.92;;;13.70;99.90;;;;;;4980002;28;20521;-65
2023/09/05 04:52:28;;;;;;;7.60;3.40;;;13.70;99.90;;;;;;4973726;28;20129;-65
2023/09/05 04:55:01;;;;;;;8.45;3.53;;;13.70;99.90;;;;;;4981110;28;20974;-65
2023/09/05 04:57:33;;;;;;;5.03;3.75;;;13.70;99.90;;;;;;4979283;28;20061;-65
2023/09/05 05:00:05;;;;;;;7.18;3.88;;;13.80;99.90;;;;;;4977569;28;20058;-65
2023/09/05 05:02:34;;;;;;;5.72;3.60;;;13.80;99.90;;;;;;4977775;28;20519;-65
2023/09/05 05:05:01;;;;;;;7.50;3.47;;;13.80;99.90;;;;;;4990724;28;20070;-65
2023/09/05 05:07:28;;;;;;;6.57;3.92;;;13.80;99.90;;;;;;4989255;28;20134;-65
2023/09/05 05:10:00;;;;;;;14.50;5.82;;;13.90;99.90;;;;;;4987105;28;20042;-65
2023/09/05 05:12:26;;;;;;;5.75;3.65;;;13.90;99.90;;;;;;4984905;28;20701;-65
2023/09/05 05:14:58;;;;;;;5.90;3.88;;;13.90;99.90;;;;;;4981012;28;20047;-65
2023/09/05 05:17:25;;;;;;;8.43;3.88;;;13.90;99.90;;;;;;4983721;28;20145;-65
2023/09/05 05:19:57;;;;;;;6.78;4.25;;;13.90;99.90;;;;;;4978013;28;20082;-65
2023/09/05 05:22:29;;;;;;;8.93;4.15;;;13.90;99.90;;;;;;4984027;28;20065;-65
2023/09/05 05:25:01;;;;;;;5.97;4.00;;;13.90;99.90;;;;;;4985173;28;20098;-65
2023/09/05 05:27:32;;;;;;;4.70;3.88;;;13.90;99.90;;;;;;4980803;28;20115;-65
2023/09/05 05:29:59;;;;;;;6.50;3.85;;;13.90;99.90;;;;;;4979388;28;20634;-65
2023/09/05 05:32:31;;;;;;;5.28;3.13;;;14.00;99.90;;;;;;4977320;28;20039;-65
2023/09/05 05:35:03;;;;;;;4.53;3.70;;;14.00;99.90;;;;;;4981125;28;20051;-65
2023/09/05 05:37:35;;;;;;;5.47;3.72;;;14.00;99.90;;;;;;4982349;28;20046;-65
2023/09/05 05:40:02;;;;;;;7.05;4.03;;;14.10;99.90;;;;;;4979062;28;20054;-65
2023/09/05 05:42:34;;;;;;;9.98;4.30;;;14.10;99.90;;;;;;4981769;28;20042;-65
2023/09/05 05:45:06;;;;;;;4.10;3.45;;;14.20;99.90;;;;;;4987674;28;20046;-65
2023/09/05 05:47:38;;;;;;;6.38;4.05;;;14.20;99.90;;;;;;4986148;28;20038;-65
2023/09/05 05:50:06;;;;;;;5.45;3.95;;;14.30;99.90;;;;;;4990660;28;20044;-65
2023/09/05 05:52:33;;;;;;;5.40;3.55;;;14.30;99.90;;;;;;4968000;28;20070;-65
2023/09/05 05:55:05;;;;;;;3.47;3.08;;;14.40;99.90;;;;;;4971930;28;20064;-65
2023/09/05 05:57:37;;;;;;;7.55;3.53;;;14.50;99.90;;;;;;4972047;28;20133;-65
2023/09/05 06:00:05;;;;;;;5.53;3.85;;;14.80;99.90;;;;;;4973955;28;20074;-65
2023/09/05 06:02:38;;;;;;;4.55;3.42;;;15.10;99.90;;;;;;4979676;28;20054;-65
2023/09/05 06:05:07;;;;;;;6.22;4.07;;;15.30;99.90;;;;;;4977329;28;20038;-65
2023/09/05 06:07:39;;;;;;;5.72;3.70;;;15.40;99.90;;;;;;4987411;28;20042;-65
2023/09/05 06:10:11;;;;;;;7.60;3.90;;;15.50;99.90;;;;;;4988278;28;20574;-65
2023/09/05 06:12:43;;;;;;;5.75;4.28;;;15.70;99.90;;;;;;4990203;28;20056;-65
2023/09/05 06:15:15;;;;;;;11.20;4.38;;;15.70;99.90;;;;;;4988251;28;20046;-65
2023/09/05 06:17:46;;;;;;;7.53;3.78;;;15.90;99.90;;;;;;4985945;28;20074;-65
2023/09/05 06:20:19;;;;;;;4.72;3.45;;;15.90;99.90;;;;;;4983888;28;20077;-65
2023/09/05 06:22:51;;;;;;;5.53;3.35;;;15.90;99.90;;;;;;4982495;28;20598;-65
2023/09/05 06:25:23;;;;;;;5.40;3.60;;;15.90;99.90;;;;;;4984044;28;20050;-65
2023/09/05 06:27:50;;;;;;;5.10;3.53;;;15.90;99.90;;;;;;4985530;28;20507;-65
2023/09/05 06:30:22;;;;;;;4.40;3.63;;;15.80;99.90;;;;;;4989393;28;20045;-65
2023/09/05 06:32:54;;;;;;;5.35;3.20;;;15.80;99.90;;;;;;4989730;28;20058;-65
2023/09/05 06:35:26;;;;;;;5.22;3.38;;;15.90;99.90;;;;;;4987023;28;20074;-65
2023/09/05 06:37:58;;;;;;;4.22;3.20;;;15.90;99.90;;;;;;4987176;28;20075;-65
2023/09/05 06:40:30;;;;;;;4.45;3.35;;;15.90;99.90;;;;;;4982753;28;20053;-68
2023/09/05 06:42:57;;;;;;;3.78;3.20;;;16.00;99.90;;;;;;4989208;28;20499;-65
2023/09/05 06:45:29;;;;;;;4.22;3.40;;;16.00;99.90;;;;;;4996352;28;20039;-65
2023/09/05 06:47:56;;;;;;;3.95;3.50;;;16.10;99.90;;;;;;4986193;28;20043;-65
2023/09/05 06:50:28;;;;;;;5.15;3.40;;;16.20;99.90;;;;;;4980774;28;20038;-66
2023/09/05 06:53:00;;;;;;;5.53;3.60;;;16.20;99.90;;;;;;4982482;28;20042;-65
2023/09/05 06:55:34;;;;;;;3.58;3.00;;;16.20;99.90;;;;;;5002776;28;20061;-65
2023/09/05 06:58:06;;;;;;;5.78;3.75;;;16.30;99.90;;;;;;4978200;28;20050;-66
2023/09/05 07:00:39;;;;;;;5.97;3.30;;;16.40;99.90;;;;;;4978491;28;20046;-65
2023/09/05 07:03:13;;;;;;;4.38;3.38;;;16.50;99.90;;;;;;5001276;28;20511;-66
2023/09/05 07:05:45;;;;;;;4.95;3.33;;;16.50;99.90;;;;;;4981996;28;20129;-65
2023/09/05 07:08:12;;;;;;;4.10;3.17;;;16.50;99.90;;;;;;4984514;28;20385;-65
2023/09/05 07:10:47;;;;;;;5.38;3.40;;;16.50;99.90;;;;;;4982644;28;20047;-65
2023/09/05 07:13:19;;;;;;;4.18;3.45;;;16.50;99.90;;;;;;4983591;28;20050;-65
2023/09/05 07:15:51;;;;;;;3.13;2.83;;;16.60;99.90;;;;;;4988128;28;20129;-65
2023/09/05 07:18:18;;;;;;;4.63;3.05;;;16.60;99.90;;;;;;4983557;28;20042;-66
2023/09/05 07:20:51;;;;;;;3.80;3.13;;;16.70;99.90;;;;;;4987649;28;20061;-66
2023/09/05 07:23:18;;;;;;;3.97;3.30;;;16.70;99.90;;;;;;4982883;28;20487;-65
2023/09/05 07:25:45;;;;;;;4.32;2.90;;;16.80;99.90;;;;;;4990081;28;20125;-65
2023/09/05 07:28:12;;;;;;;4.72;3.08;;;16.90;99.90;;;;;;4989444;28;20045;-65
2023/09/05 07:30:44;;;;;;;6.43;2.97;;;17.00;99.90;;;;;;5005072;28;20042;-65
2023/09/05 07:33:15;;;;;;;6.00;3.28;;;17.00;99.90;;;;;;4990131;28;20081;-65
2023/09/05 07:35:47;;;;;;;4.32;3.00;;;17.10;99.90;;;;;;4990457;28;20127;-65
2023/09/05 07:38:16;;;;;;;5.63;3.13;;;17.10;99.90;;;;;;4987384;28;20042;-66
2023/09/05 07:40:48;;;;;;;5.40;3.17;;;17.20;99.90;;;;;;4985823;28;20074;-65
2023/09/05 07:43:15;;;;;;;4.50;3.00;;;17.30;99.90;;;;;;4982095;28;20475;-65
2023/09/05 07:45:47;;;;;;;4.38;2.70;;;17.40;99.90;;;;;;4988897;28;20049;-65
2023/09/05 07:48:19;;;;;;;5.53;2.85;;;17.40;99.90;;;;;;4991259;28;20388;-65
2023/09/05 07:50:51;;;;;;;3.67;3.00;;;17.50;99.90;;;;;;4988412;28;20052;-65
2023/09/05 07:53:22;;;;;;;4.75;3.38;;;17.60;99.90;;;;;;4986118;28;20485;-67
2023/09/05 07:59:55;;;;;;;3.95;3.22;;;17.70;99.90;;;;;;5113644;27;20116;-65
2023/09/05 08:02:27;;;;;;;5.35;3.00;;;17.80;99.90;;;;;;5099783;28;20039;-65
2023/09/05 08:04:59;;;;;;;4.93;3.30;;;17.90;99.90;;;;;;5094677;28;20042;-66
2023/09/05 08:07:31;;;;;;;4.18;3.05;;;17.90;99.90;;;;;;5099095;28;20086;-65
2023/09/05 08:10:07;;;;;;;3.95;2.90;;;18.00;99.90;;;;;;5102589;28;20044;-65
2023/09/05 08:12:39;;;;;;;3.53;2.85;;;18.10;99.90;;;;;;5098355;28;20040;-66
2023/09/05 08:15:11;;;;;;;4.53;3.00;;;18.20;99.90;;;;;;5100836;28;20123;-65
2023/09/05 08:17:42;;;;;;;5.63;3.15;;;18.20;99.90;;;;;;5095378;28;20069;-66
2023/09/05 08:20:16;;;;;;;4.78;2.80;;;18.30;99.90;;;;;;5096550;28;20495;-65
2023/09/05 08:22:48;;;;;;;6.13;2.85;;;18.40;99.90;;;;;;5099794;28;20068;-66
2023/09/05 08:25:23;;;;;;;4.72;2.92;;;18.50;99.90;;;;;;5100822;28;20587;-65
2023/09/05 08:27:56;;;;;;;4.47;3.33;;;18.70;99.90;;;;;;5100091;28;20057;-65
2023/09/05 08:30:27;;;;;;;4.28;3.30;;;18.70;99.90;;;;;;5101244;28;20036;-65
2023/09/05 08:33:01;;;;;;;5.25;3.03;;;18.80;99.90;;;;;;5096117;28;20036;-66
2023/09/05 08:35:29;;;;;;;3.75;3.30;;;19.00;99.90;;;;;;5097458;28;20123;-66
2023/09/05 08:38:04;;;;;;;3.65;2.92;;;19.00;99.90;;;;;;5093867;28;20508;-65
2023/09/05 08:40:36;;;;;;;4.72;3.17;;;19.20;99.90;;;;;;5095794;28;20068;-66
2023/09/05 08:43:03;;;;;;;5.90;3.13;;;19.30;99.90;;;;;;5101104;28;20078;-65
2023/09/05 08:45:36;;;;;;;6.40;3.67;;;19.40;99.90;;;;;;5097626;28;20128;-65
2023/09/05 08:48:08;;;;;;;4.75;2.97;;;19.40;99.90;;;;;;5103749;28;20048;-65
2023/09/05 08:50:41;;;;;;;3.90;3.28;;;19.60;99.90;;;;;;5095792;28;20040;-65
2023/09/05 08:53:14;;;;;;;2.90;2.60;;;19.60;99.90;;;;;;5094290;28;20055;-65
2023/09/05 08:55:46;;;;;;;5.82;3.15;;;19.70;99.90;;;;;;5098195;28;20539;-65
2023/09/05 08:58:20;;;;;;;3.47;3.08;;;19.80;99.90;;;;;;5095776;28;20473;-65
2023/09/05 09:00:52;;;;;;;7.88;3.53;;;19.90;99.90;;;;;;5090807;28;20055;-66
2023/09/05 09:03:19;;;;;;;4.90;2.88;;;20.00;99.90;;;;;;5089448;28;20036;-65
2023/09/05 09:05:51;;;;;;;6.32;3.38;;;20.10;99.90;;;;;;5095721;28;20052;-65
2023/09/05 09:08:22;;;;;;;3.70;2.92;;;20.30;99.90;;;;;;5088989;28;20052;-65
2023/09/05 09:11:05;;;;;;;3.80;2.85;;;20.30;99.90;;;;;;5085279;28;20123;-65
2023/09/05 09:13:32;;;;;;;3.50;2.90;;;20.40;99.90;;;;;;5087789;28;20036;-65
2023/09/05 09:16:02;;;;;;;2.97;2.60;;;20.50;99.90;;;;;;5087238;28;20705;-65
2023/09/05 09:18:34;;;;;;;4.18;2.90;;;20.60;99.90;;;;;;5081372;28;20054;-65
2023/09/05 09:21:06;;;;;;;3.15;2.40;;;20.70;99.90;;;;;;5087031;28;20478;-65
2023/09/05 09:23:40;;;;;;;4.07;2.92;;;20.80;99.90;;;;;;5078607;28;20039;-66
2023/09/05 09:26:13;;;;;;;4.72;2.70;;;20.80;99.90;;;;;;5081611;28;20404;-65
2023/09/05 09:28:45;;;;;;;;;;;21.00;99.90;;;;;;5078948;28;20044;-66
2023/09/05 09:31:17;;;;;;;2.90;2.40;;;21.00;99.90;;;;;;5080143;28;19931;-66
2023/09/05 09:33:56;;;;;;;3.10;2.55;;;21.10;99.90;;;;;;5089653;28;20075;-66
2023/09/05 09:36:35;;;;;;;3.92;2.80;;;21.20;99.90;;;;;;5091394;28;20046;-65
2023/09/05 09:39:11;;;;;;;3.60;2.70;;;21.30;99.90;;;;;;5074191;28;20047;-66
2023/09/05 09:41:45;;;;;;;5.90;2.67;;;21.40;99.90;;;;;;5074325;28;20054;-64
2023/09/05 09:44:32;;;;;;;5.25;2.85;;;21.50;99.90;;;;;;5076522;28;20535;-64
2023/09/05 09:47:04;;;;;;;2.92;2.63;;;21.60;99.90;;;;;;5084728;28;20488;-65
2023/09/05 09:49:42;;;;;;;3.38;2.60;;;21.60;99.90;;;;;;5074077;28;20072;-67
2023/09/05 09:52:22;;;;;;;3.90;2.58;;;21.70;99.90;;;;;;5081676;28;20054;-64
2023/09/05 09:54:56;;;;;;;3.35;2.70;;;21.80;99.90;;;;;;5079639;28;20044;-65
2023/09/05 09:57:38;;;;;;;3.30;2.97;;;21.80;99.90;;;;;;5089097;28;20040;-71
2023/09/05 10:00:09;;;;;;;2.85;2.42;;;21.90;99.90;;;;;;5077817;28;20169;-65
2023/09/05 10:02:46;;;;;;;3.10;2.78;;;22.00;99.90;;;;;;5085957;28;20041;-65
2023/09/05 10:05:24;;;;;;;2.70;2.30;;;22.10;99.90;;;;;;5078294;28;20047;-69
2023/09/05 10:07:57;;;;;;;4.47;2.60;;;22.30;99.90;;;;;;5080151;28;20058;-69
2023/09/05 10:10:30;;;;;;;4.68;2.17;;;22.40;99.90;;;;;;5079957;28;20131;-71
2023/09/05 10:12:58;;;;;;;5.25;2.53;;;22.50;99.90;;;;;;5077713;28;20063;-69
2023/09/05 10:15:25;;;;;;;3.40;2.30;;;22.60;99.90;;;;;;5075416;28;20041;-70
2023/09/05 10:17:59;;;;;;;3.05;2.50;;;22.60;99.90;;;;;;5079951;28;20141;-69
2023/09/05 10:20:27;;;;;;;2.97;2.22;;;22.70;99.90;;;;;;5079895;28;20032;-69
2023/09/05 10:22:59;;;;;;;2.75;2.50;;;22.80;99.90;;;;;;5080423;28;20040;-68
2023/09/05 10:25:32;;;;;;;4.40;1.95;;;22.80;99.90;;;;;;5080397;28;20389;-69
2023/09/05 10:28:04;;;;;;;3.47;2.45;;;23.00;99.90;;;;;;5083664;28;20032;-69
2023/09/05 10:30:40;;;;;;;3.88;2.45;;;23.00;99.90;;;;;;5071173;28;20131;-69
2023/09/05 10:33:16;;;;;;;2.88;2.20;;;23.10;99.90;;;;;;5082336;28;21538;-69
2023/09/05 10:35:48;;;;;;;3.67;2.08;;;23.30;99.90;;;;;;5077173;28;20047;-69
2023/09/05 10:38:20;;;;;;;3.22;2.40;;;23.30;99.90;;;;;;5079104;28;20710;-69
2023/09/05 10:40:52;;;;;;;2.83;2.20;;;23.40;99.90;;;;;;5081316;28;20036;-69
2023/09/05 10:43:25;;;;;;;3.00;2.00;;;23.50;99.90;;;;;;5075646;28;20044;-69
2023/09/05 10:46:02;;;;;;;3.08;2.10;;;23.50;99.90;;;;;;5082308;28;20553;-68
2023/09/05 10:48:45;;;;;;;2.78;2.08;;;23.50;99.90;;;;;;5076324;28;20044;-68
2023/09/05 10:51:18;;;;;;;4.10;2.25;;;23.60;99.90;;;;;;5062074;28;20120;-68
2023/09/05 10:53:50;;;;;;;;;;;23.60;99.90;;;;;;5084584;28;20509;-69
2023/09/05 10:56:39;;;;;;;2.33;2.13;;;23.70;99.90;;;;;;5082636;28;19924;-68
2023/09/05 10:59:25;;;;;;;2.42;1.95;;;23.80;99.90;;;;;;5083947;28;20044;-69
2023/09/05 11:02:05;;;;;;;3.95;2.20;;;23.90;99.90;;;;;;5068940;28;20134;-69
2023/09/05 11:04:38;;;;;;;3.40;2.40;;;24.00;99.90;;;;;;5079054;28;20069;-69
2023/09/05 11:07:13;;;;;;;2.60;2.22;;;24.20;99.90;;;;;;5076531;28;20072;-69
2023/09/05 11:09:49;;;;;;;4.28;2.58;;;24.20;99.90;;;;;;5077868;28;20040;-69
2023/09/05 11:12:17;;;;;;;3.58;2.40;;;24.30;99.90;;;;;;5079052;28;20599;-70
2023/09/05 11:14:53;;;;;;;4.95;2.20;;;24.30;99.90;;;;;;5072379;28;20054;-69
2023/09/05 11:17:27;;;;;;;6.10;2.20;;;24.40;99.90;;;;;;5086253;28;20613;-69
2023/09/05 11:19:58;;;;;;;2.75;2.20;;;24.50;99.90;;;;;;5086346;28;20503;-66
2023/09/05 11:22:30;;;;;;;10.77;2.78;;;24.50;99.90;;;;;;5078967;28;20036;-66
2023/09/05 11:25:07;;;;;;;7.20;2.60;;;24.50;99.90;;;;;;5068801;28;20037;-67
2023/09/05 11:27:40;;;;;;;2.55;2.35;;;24.60;99.90;;;;;;5077270;28;20037;-68
2023/09/05 11:30:16;;;;;;;4.18;2.38;;;24.60;99.90;;;;;;5072198;28;20175;-67
2023/09/05 11:32:49;;;;;;;2.45;2.15;;;24.70;99.90;;;;;;5076026;28;20041;-67
2023/09/05 11:35:21;;;;;;;4.47;2.20;;;24.80;99.90;;;;;;5069951;28;20424;-66
2023/09/05 11:37:58;;;;;;;5.13;2.78;;;24.80;99.90;;;;;;5069746;28;20535;-67
2023/09/05 11:40:31;;;;;;;2.67;2.38;;;24.90;99.90;;;;;;5061842;28;20040;-67
2023/09/05 11:43:06;;;;;;;3.20;2.33;;;25.00;99.90;;;;;;5072545;28;20036;-67
2023/09/05 11:45:42;;;;;;;4.72;2.30;;;25.00;99.90;;;;;;5073958;28;20408;-66
2023/09/05 11:48:15;;;;;;;3.78;2.15;;;25.10;99.90;;;;;;5075286;28;20043;-68
2023/09/05 11:50:47;;;;;;;2.70;2.10;;;25.10;99.90;;;;;;5077054;28;20040;-67
2023/09/05 11:53:17;;;;;;;2.17;1.92;;;25.10;99.90;;;;;;5076505;28;20075;-67
2023/09/05 11:55:50;;;;;;;2.25;2.00;;;25.20;99.90;;;;;;5082242;28;20122;-66
2023/09/05 11:58:21;;;;;;;2.90;2.25;;;25.20;99.90;;;;;;5081615;28;20051;-67
2023/09/05 12:00:54;;;;;;;2.47;2.20;;;25.30;99.90;;;;;;5077597;28;20055;-67
2023/09/05 12:03:34;;;;;;;2.67;2.22;;;25.40;99.90;;;;;;5075959;28;20040;-66
2023/09/05 12:06:08;;;;;;;4.30;2.50;;;25.50;99.90;;;;;;5074636;28;20044;-67
2023/09/05 12:08:35;;;;;;;3.90;2.40;;;25.50;99.90;;;;;;5072509;28;20056;-67
2023/09/05 12:11:08;;;;;;;2.17;1.98;;;25.60;99.90;;;;;;5077756;28;20044;-67
2023/09/05 12:13:46;;;;;;;3.77;2.17;;;25.70;99.90;;;;;;5089245;28;20055;-67
2023/09/05 12:16:19;;;;;;;2.42;2.05;;;25.80;99.90;;;;;;5086492;28;20063;-67
2023/09/05 12:18:58;;;;;;;2.53;2.30;;;25.80;99.90;;;;;;5084965;28;20136;-67
2023/09/05 12:21:43;;;;;;;3.55;2.45;;;25.80;99.90;;;;;;5076386;28;20048;-67
2023/09/05 12:24:22;;;;;;;5.07;1.98;;;25.80;99.90;;;;;;5078817;28;20515;-67
2023/09/05 12:26:56;;;;;;;2.20;2.00;;;25.90;99.90;;;;;;5079467;28;20044;-67
2023/09/05 12:29:40;;;;;;;2.53;2.25;;;25.90;99.90;;;;;;5078895;28;20065;-66
2023/09/05 12:32:11;;;;;;;;;;;26.00;99.90;;;;;;5082384;28;20044;-67
2023/09/05 12:34:43;;;;;;;5.13;2.33;;;26.00;99.90;;;;;;5079299;28;20015;-67
2023/09/05 12:37:15;;;;;;;3.15;1.98;;;26.00;99.90;;;;;;5085255;28;20048;-67
2023/09/05 12:39:47;;;;;;;2.40;2.10;;;26.10;99.90;;;;;;5076137;28;20478;-67
2023/09/05 12:42:19;;;;;;;3.83;2.70;;;26.20;99.90;;;;;;5073002;28;20048;-67
2023/09/05 12:44:52;;;;;;;4.03;2.05;;;26.20;99.90;;;;;;5083728;28;20047;-67
2023/09/05 12:47:24;;;;;;;;;;;26.20;99.90;;;;;;5085278;28;20567;-67
2023/09/05 12:49:57;;;;;;;2.25;2.00;;;26.30;99.90;;;;;;5091342;28;19924;-67
2023/09/05 12:52:29;;;;;;;3.70;2.33;;;26.40;99.90;;;;;;5101267;28;20087;-67
2023/09/05 12:55:03;;;;;;;2.97;2.10;;;26.40;99.90;;;;;;5090464;28;20044;-67
2023/09/05 12:57:34;;;;;;;;;;;26.40;99.90;;;;;;5088917;28;20039;-67
2023/09/05 13:00:10;;;;;;;3.00;2.00;;;26.50;99.90;;;;;;5086760;28;19920;-66
2023/09/05 13:02:45;;;;;;;2.63;2.05;;;26.50;99.90;;;;;;5089600;28;20409;-67
2023/09/05 13:05:17;;;;;;;3.03;1.92;;;26.60;99.90;;;;;;5085329;28;20051;-68
2023/09/05 13:07:49;;;;;;;4.10;2.40;;;26.60;99.90;;;;;;5091479;28;20041;-67
2023/09/05 13:10:21;;;;;;;2.90;2.38;;;26.60;99.90;;;;;;5091591;28;20048;-66
2023/09/05 13:12:53;;;;;;;4.45;2.05;;;26.60;99.90;;;;;;5074083;28;20143;-67
2023/09/05 13:15:26;;;;;;;3.03;2.47;;;26.70;99.90;;;;;;5073024;28;20044;-67
2023/09/05 13:17:59;;;;;;;2.92;2.55;;;26.70;99.90;;;;;;5090994;28;20134;-67
2023/09/05 13:20:32;;;;;;;4.88;2.55;;;26.80;99.90;;;;;;5077657;28;20182;-67
2023/09/05 13:23:04;;;;;;;2.72;2.20;;;26.80;99.90;;;;;;5078038;28;20136;-67